sensor_id;sensor_type;location;lat;lon;timestamp;pressure;altitude;pressure_sealevel;temperature;humidity
72210;BME280;60113;48.762;12.302;2023-07-31T00:01:46;97337.22;;;13.21;67.29
72210;BME280;60113;48.762;12.302;2023-07-31T00:04:14;97334.16;;;13.16;66.76
72210;BME280;60113;48.762;12.302;2023-07-31T00:06:46;97336.59;;;13.07;67.49
72210;BME280;60113;48.762;12.302;2023-07-31T00:09:15;97332.22;;;12.96;67.84
72210;BME280;60113;48.762;12.302;2023-07-31T00:11:47;97328.69;;;12.86;68.70
72210;BME280;60113;48.762;12.302;2023-07-31T00:14:15;97331.53;;;12.73;67.75
72210;BME280;60113;48.762;12.302;2023-07-31T00:16:49;97331.59;;;12.61;67.94
72210;BME280;60113;48.762;12.302;2023-07-31T00:19:23;97335.13;;;12.50;68.62
72210;BME280;60113;48.762;12.302;2023-07-31T00:21:55;97326.31;;;12.40;69.46
72210;BME280;60113;48.762;12.302;2023-07-31T00:24:22;97324.56;;;12.29;69.01
72210;BME280;60113;48.762;12.302;2023-07-31T00:26:48;97333.47;;;12.17;69.39
72210;BME280;60113;48.762;12.302;2023-07-31T00:29:18;97334.56;;;12.03;69.39
72210;BME280;60113;48.762;12.302;2023-07-31T00:31:46;97332.19;;;11.88;69.81
72210;BME280;60113;48.762;12.302;2023-07-31T00:34:13;97326.13;;;11.76;69.83
72210;BME280;60113;48.762;12.302;2023-07-31T00:36:49;97327.69;;;11.67;73.78
72210;BME280;60113;48.762;12.302;2023-07-31T00:39:14;97326.72;;;11.57;72.28
72210;BME280;60113;48.762;12.302;2023-07-31T00:41:40;97332.59;;;11.49;71.62
72210;BME280;60113;48.762;12.302;2023-07-31T00:44:08;97331.41;;;11.42;73.02
72210;BME280;60113;48.762;12.302;2023-07-31T00:47:00;97327.59;;;11.34;74.91
72210;BME280;60113;48.762;12.302;2023-07-31T00:50:00;97329.38;;;11.34;78.81
72210;BME280;60113;48.762;12.302;2023-07-31T00:52:47;97329.63;;;11.31;78.08
72210;BME280;60113;48.762;12.302;2023-07-31T00:55:30;97324.47;;;11.29;78.77
72210;BME280;60113;48.762;12.302;2023-07-31T00:58:07;97316.25;;;11.22;74.35
72210;BME280;60113;48.762;12.302;2023-07-31T01:03:59;97316.00;;;11.25;79.32
72210;BME280;60113;48.762;12.302;2023-07-31T01:10:11;97319.59;;;11.36;80.04
72210;BME280;60113;48.762;12.302;2023-07-31T01:12:51;97313.34;;;11.37;75.11
72210;BME280;60113;48.762;12.302;2023-07-31T01:15:21;97315.03;;;11.38;73.42
72210;BME280;60113;48.762;12.302;2023-07-31T01:17:46;97312.28;;;11.40;75.10
72210;BME280;60113;48.762;12.302;2023-07-31T01:20:22;97307.84;;;11.40;74.12
72210;BME280;60113;48.762;12.302;2023-07-31T01:26:23;97304.13;;;11.43;76.55
72210;BME280;60113;48.762;12.302;2023-07-31T01:28:56;97296.38;;;11.41;73.62
72210;BME280;60113;48.762;12.302;2023-07-31T01:31:46;97292.56;;;11.45;78.94
72210;BME280;60113;48.762;12.302;2023-07-31T01:34:17;97292.56;;;11.45;74.05
72210;BME280;60113;48.762;12.302;2023-07-31T01:36:56;97290.75;;;11.46;74.47
72210;BME280;60113;48.762;12.302;2023-07-31T01:39:23;97287.06;;;11.48;74.86
72210;BME280;60113;48.762;12.302;2023-07-31T01:41:59;97283.22;;;11.53;78.36
72210;BME280;60113;48.762;12.302;2023-07-31T01:44:27;97285.13;;;11.50;74.23
72210;BME280;60113;48.762;12.302;2023-07-31T01:46:53;97289.56;;;11.50;72.41
72210;BME280;60113;48.762;12.302;2023-07-31T01:49:28;97278.06;;;11.51;75.87
72210;BME280;60113;48.762;12.302;2023-07-31T01:51:58;97287.88;;;11.49;74.59
72210;BME280;60113;48.762;12.302;2023-07-31T01:54:25;97288.84;;;11.48;73.42
72210;BME280;60113;48.762;12.302;2023-07-31T01:56:59;97284.41;;;11.48;73.25
72210;BME280;60113;48.762;12.302;2023-07-31T01:59:24;97279.97;;;11.49;72.89
72210;BME280;60113;48.762;12.302;2023-07-31T02:02:05;97272.81;;;11.51;76.77
72210;BME280;60113;48.762;12.302;2023-07-31T02:04:42;97279.59;;;11.54;76.48
72210;BME280;60113;48.762;12.302;2023-07-31T02:07:10;97275.19;;;11.54;75.10
72210;BME280;60113;48.762;12.302;2023-07-31T02:09:42;97268.84;;;11.57;75.40
72210;BME280;60113;48.762;12.302;2023-07-31T02:12:26;97264.44;;;11.57;75.07
72210;BME280;60113;48.762;12.302;2023-07-31T02:14:58;97268.72;;;11.58;76.50
72210;BME280;60113;48.762;12.302;2023-07-31T02:17:42;97266.69;;;11.62;79.67
72210;BME280;60113;48.762;12.302;2023-07-31T02:20:10;97264.31;;;11.59;74.74
72210;BME280;60113;48.762;12.302;2023-07-31T02:22:36;97260.81;;;11.58;75.34
72210;BME280;60113;48.762;12.302;2023-07-31T02:25:14;97253.78;;;11.59;77.42
72210;BME280;60113;48.762;12.302;2023-07-31T02:27:39;97257.75;;;11.53;74.11
72210;BME280;60113;48.762;12.302;2023-07-31T02:30:24;97258.81;;;11.50;75.14
72210;BME280;60113;48.762;12.302;2023-07-31T02:32:49;97264.56;;;11.44;73.63
72210;BME280;60113;48.762;12.302;2023-07-31T02:35:19;97258.84;;;11.39;73.99
72210;BME280;60113;48.762;12.302;2023-07-31T02:37:50;97260.88;;;11.35;73.18
72210;BME280;60113;48.762;12.302;2023-07-31T02:40:50;97250.00;;;11.29;76.91
72210;BME280;60113;48.762;12.302;2023-07-31T02:43:15;97246.19;;;11.21;75.11
72210;BME280;60113;48.762;12.302;2023-07-31T02:45:59;97253.38;;;11.19;73.98
72210;BME280;60113;48.762;12.302;2023-07-31T02:48:27;97256.94;;;11.18;75.07
72210;BME280;60113;48.762;12.302;2023-07-31T02:50:53;97256.81;;;11.20;75.98
72210;BME280;60113;48.762;12.302;2023-07-31T02:53:22;97254.06;;;11.21;74.78
72210;BME280;60113;48.762;12.302;2023-07-31T02:55:51;97250.75;;;11.19;73.88
72210;BME280;60113;48.762;12.302;2023-07-31T02:58:22;97247.38;;;11.17;73.33
72210;BME280;60113;48.762;12.302;2023-07-31T03:00:51;97242.25;;;11.16;73.59
72210;BME280;60113;48.762;12.302;2023-07-31T03:03:23;97243.09;;;11.16;80.82
72210;BME280;60113;48.762;12.302;2023-07-31T03:05:52;97235.06;;;11.06;73.94
72210;BME280;60113;48.762;12.302;2023-07-31T03:08:18;97243.69;;;10.97;73.82
72210;BME280;60113;48.762;12.302;2023-07-31T03:10:54;97244.63;;;10.84;74.00
72210;BME280;60113;48.762;12.302;2023-07-31T03:13:31;97247.47;;;10.70;73.33
72210;BME280;60113;48.762;12.302;2023-07-31T03:16:21;97244.34;;;10.53;77.14
72210;BME280;60113;48.762;12.302;2023-07-31T03:18:54;97250.50;;;10.41;74.91
72210;BME280;60113;48.762;12.302;2023-07-31T03:21:23;97245.50;;;10.37;75.51
72210;BME280;60113;48.762;12.302;2023-07-31T03:23:48;97244.66;;;10.37;75.62
72210;BME280;60113;48.762;12.302;2023-07-31T03:26:16;97255.28;;;10.35;75.37
72210;BME280;60113;48.762;12.302;2023-07-31T03:28:47;97253.81;;;10.31;76.32
72210;BME280;60113;48.762;12.302;2023-07-31T03:31:14;97249.53;;;10.30;76.21
72210;BME280;60113;48.762;12.302;2023-07-31T03:33:52;97252.66;;;10.35;74.81
72210;BME280;60113;48.762;12.302;2023-07-31T03:36:17;97255.66;;;10.42;75.93
72210;BME280;60113;48.762;12.302;2023-07-31T03:38:48;97255.41;;;10.45;75.40
72210;BME280;60113;48.762;12.302;2023-07-31T03:41:25;97258.91;;;10.46;75.65
72210;BME280;60113;48.762;12.302;2023-07-31T03:43:55;97253.97;;;10.41;74.46
72210;BME280;60113;48.762;12.302;2023-07-31T03:46:35;97250.38;;;10.31;75.04
72210;BME280;60113;48.762;12.302;2023-07-31T03:49:18;97245.94;;;10.20;74.02
72210;BME280;60113;48.762;12.302;2023-07-31T03:51:53;97255.53;;;10.08;74.40
72210;BME280;60113;48.762;12.302;2023-07-31T03:54:19;97256.25;;;9.98;75.56
72210;BME280;60113;48.762;12.302;2023-07-31T03:56:55;97255.84;;;9.92;76.10
72210;BME280;60113;48.762;12.302;2023-07-31T03:59:24;97257.38;;;9.83;74.95
72210;BME280;60113;48.762;12.302;2023-07-31T04:01:50;97258.63;;;9.77;76.37
72210;BME280;60113;48.762;12.302;2023-07-31T04:04:28;97261.47;;;9.74;79.16
72210;BME280;60113;48.762;12.302;2023-07-31T04:07:08;97261.59;;;9.72;78.72
72210;BME280;60113;48.762;12.302;2023-07-31T04:09:42;97263.88;;;9.77;77.88
72210;BME280;60113;48.762;12.302;2023-07-31T04:12:10;97260.00;;;9.83;78.68
72210;BME280;60113;48.762;12.302;2023-07-31T04:14:43;97261.94;;;9.92;77.75
72210;BME280;60113;48.762;12.302;2023-07-31T04:17:08;97265.56;;;10.03;78.71
72210;BME280;60113;48.762;12.302;2023-07-31T04:19:43;97259.41;;;10.15;77.22
72210;BME280;60113;48.762;12.302;2023-07-31T04:22:08;97247.47;;;10.22;76.55
72210;BME280;60113;48.762;12.302;2023-07-31T04:24:45;97246.06;;;10.30;77.28
72210;BME280;60113;48.762;12.302;2023-07-31T04:27:13;97248.22;;;10.36;76.32
72210;BME280;60113;48.762;12.302;2023-07-31T04:29:42;97246.84;;;10.43;76.22
72210;BME280;60113;48.762;12.302;2023-07-31T04:32:29;97239.22;;;10.52;77.20
72210;BME280;60113;48.762;12.302;2023-07-31T04:35:10;97243.66;;;10.62;76.39
72210;BME280;60113;48.762;12.302;2023-07-31T04:37:38;97235.78;;;10.74;76.72
72210;BME280;60113;48.762;12.302;2023-07-31T04:40:05;97230.75;;;10.82;74.77
72210;BME280;60113;48.762;12.302;2023-07-31T04:42:33;97229.47;;;10.88;74.61
72210;BME280;60113;48.762;12.302;2023-07-31T04:45:09;97226.50;;;10.93;75.62
72210;BME280;60113;48.762;12.302;2023-07-31T04:47:37;97234.13;;;10.96;75.84
72210;BME280;60113;48.762;12.302;2023-07-31T04:50:11;97235.56;;;11.00;76.12
72210;BME280;60113;48.762;12.302;2023-07-31T04:52:37;97233.53;;;11.04;76.41
72210;BME280;60113;48.762;12.302;2023-07-31T04:55:05;97230.44;;;11.10;75.94
72210;BME280;60113;48.762;12.302;2023-07-31T04:57:37;97233.25;;;11.18;75.81
72210;BME280;60113;48.762;12.302;2023-07-31T05:00:05;97230.84;;;11.38;74.13
72210;BME280;60113;48.762;12.302;2023-07-31T05:02:40;97227.19;;;11.73;73.39
72210;BME280;60113;48.762;12.302;2023-07-31T05:05:06;97230.22;;;12.23;74.62
72210;BME280;60113;48.762;12.302;2023-07-31T05:07:34;97230.44;;;12.84;75.01
72210;BME280;60113;48.762;12.302;2023-07-31T05:09:59;97219.22;;;13.43;74.93
72210;BME280;60113;48.762;12.302;2023-07-31T05:12:34;97213.75;;;14.05;75.32
72210;BME280;60113;48.762;12.302;2023-07-31T05:15:02;97213.44;;;14.48;75.56
72210;BME280;60113;48.762;12.302;2023-07-31T05:17:31;97225.50;;;14.60;75.54
72210;BME280;60113;48.762;12.302;2023-07-31T05:19:59;97215.84;;;14.89;75.36
72210;BME280;60113;48.762;12.302;2023-07-31T05:22:43;97209.22;;;15.31;75.26
72210;BME280;60113;48.762;12.302;2023-07-31T05:25:12;97213.06;;;15.65;74.70
72210;BME280;60113;48.762;12.302;2023-07-31T05:27:56;97219.91;;;15.86;74.80
72210;BME280;60113;48.762;12.302;2023-07-31T05:30:24;97217.53;;;15.83;74.65
72210;BME280;60113;48.762;12.302;2023-07-31T05:32:49;97210.66;;;15.90;74.68
72210;BME280;60113;48.762;12.302;2023-07-31T05:35:15;97214.28;;;16.25;75.23
72210;BME280;60113;48.762;12.302;2023-07-31T05:37:40;97212.59;;;16.78;74.94
72210;BME280;60113;48.762;12.302;2023-07-31T05:40:06;97210.56;;;17.33;75.30
72210;BME280;60113;48.762;12.302;2023-07-31T05:42:31;97207.72;;;17.86;75.31
72210;BME280;60113;48.762;12.302;2023-07-31T05:44:57;97216.34;;;18.05;75.02
72210;BME280;60113;48.762;12.302;2023-07-31T05:47:22;97208.69;;;18.02;74.53
72210;BME280;60113;48.762;12.302;2023-07-31T05:49:48;97211.19;;;17.95;73.48
72210;BME280;60113;48.762;12.302;2023-07-31T05:52:20;97217.31;;;17.79;72.94
72210;BME280;60113;48.762;12.302;2023-07-31T05:54:48;97215.63;;;17.61;72.95
72210;BME280;60113;48.762;12.302;2023-07-31T05:57:17;97217.25;;;17.45;72.55
72210;BME280;60113;48.762;12.302;2023-07-31T05:59:42;97218.66;;;17.23;72.07
72210;BME280;60113;48.762;12.302;2023-07-31T06:02:10;97221.22;;;17.06;72.13
72210;BME280;60113;48.762;12.302;2023-07-31T06:04:38;97215.22;;;16.96;71.27
72210;BME280;60113;48.762;12.302;2023-07-31T06:07:04;97222.28;;;16.87;70.58
72210;BME280;60113;48.762;12.302;2023-07-31T06:09:38;97225.25;;;16.84;70.60
72210;BME280;60113;48.762;12.302;2023-07-31T06:12:07;97221.00;;;16.99;70.45
72210;BME280;60113;48.762;12.302;2023-07-31T06:14:33;97213.06;;;17.34;70.70
72210;BME280;60113;48.762;12.302;2023-07-31T06:17:04;97201.53;;;17.77;71.26
72210;BME280;60113;48.762;12.302;2023-07-31T06:19:41;97202.25;;;18.21;72.33
72210;BME280;60113;48.762;12.302;2023-07-31T06:22:16;97188.53;;;18.66;69.32
72210;BME280;60113;48.762;12.302;2023-07-31T06:24:59;97203.59;;;18.90;71.74
72210;BME280;60113;48.762;12.302;2023-07-31T06:27:25;97207.75;;;19.09;71.53
72210;BME280;60113;48.762;12.302;2023-07-31T06:29:53;97216.19;;;19.21;71.71
72210;BME280;60113;48.762;12.302;2023-07-31T06:32:21;97208.72;;;19.17;71.20
72210;BME280;60113;48.762;12.302;2023-07-31T06:34:52;97206.72;;;19.10;70.67
72210;BME280;60113;48.762;12.302;2023-07-31T06:37:23;97198.25;;;19.07;70.39
72210;BME280;60113;48.762;12.302;2023-07-31T06:39:51;97199.41;;;19.13;71.04
72210;BME280;60113;48.762;12.302;2023-07-31T06:42:16;97202.69;;;19.23;70.58
72210;BME280;60113;48.762;12.302;2023-07-31T06:44:42;97201.81;;;19.31;66.65
72210;BME280;60113;48.762;12.302;2023-07-31T06:47:07;97210.25;;;19.43;69.81
72210;BME280;60113;48.762;12.302;2023-07-31T06:49:35;97211.34;;;19.57;69.77
72210;BME280;60113;48.762;12.302;2023-07-31T06:52:21;97213.56;;;19.77;70.57
72210;BME280;60113;48.762;12.302;2023-07-31T06:55:03;97215.97;;;19.86;65.07
72210;BME280;60113;48.762;12.302;2023-07-31T06:57:37;97205.75;;;19.98;70.73
72210;BME280;60113;48.762;12.302;2023-07-31T07:00:19;97201.22;;;19.99;69.29
72210;BME280;60113;48.762;12.302;2023-07-31T07:02:45;97202.69;;;20.10;66.09
72210;BME280;60113;48.762;12.302;2023-07-31T07:05:13;97200.91;;;20.02;68.09
72210;BME280;60113;48.762;12.302;2023-07-31T07:07:39;97192.78;;;19.95;68.35
72210;BME280;60113;48.762;12.302;2023-07-31T07:10:07;97185.69;;;19.88;68.40
72210;BME280;60113;48.762;12.302;2023-07-31T07:12:40;97188.44;;;19.71;66.76
72210;BME280;60113;48.762;12.302;2023-07-31T07:15:06;97185.19;;;19.60;66.15
72210;BME280;60113;48.762;12.302;2023-07-31T07:17:37;97181.22;;;19.56;66.98
72210;BME280;60113;48.762;12.302;2023-07-31T07:20:05;97185.38;;;19.51;65.47
72210;BME280;60113;48.762;12.302;2023-07-31T07:22:34;97188.13;;;19.42;66.13
72210;BME280;60113;48.762;12.302;2023-07-31T07:24:59;97182.13;;;19.40;66.37
72210;BME280;60113;48.762;12.302;2023-07-31T07:27:30;97182.47;;;19.37;65.15
72210;BME280;60113;48.762;12.302;2023-07-31T07:29:59;97187.34;;;19.33;65.90
72210;BME280;60113;48.762;12.302;2023-07-31T07:32:24;97195.13;;;19.35;65.69
72210;BME280;60113;48.762;12.302;2023-07-31T07:34:53;97183.66;;;19.34;64.72
72210;BME280;60113;48.762;12.302;2023-07-31T07:37:21;97186.50;;;19.33;64.47
72210;BME280;60113;48.762;12.302;2023-07-31T07:39:49;97188.38;;;19.24;63.82
72210;BME280;60113;48.762;12.302;2023-07-31T07:42:30;97179.59;;;19.15;64.04
72210;BME280;60113;48.762;12.302;2023-07-31T07:44:58;97186.25;;;19.03;62.59
72210;BME280;60113;48.762;12.302;2023-07-31T07:47:26;97187.44;;;19.00;64.36
72210;BME280;60113;48.762;12.302;2023-07-31T07:49:54;97191.28;;;18.97;63.18
72210;BME280;60113;48.762;12.302;2023-07-31T07:52:22;97196.63;;;18.97;64.04
72210;BME280;60113;48.762;12.302;2023-07-31T07:54:50;97180.31;;;18.92;61.50
72210;BME280;60113;48.762;12.302;2023-07-31T07:57:19;97176.81;;;18.92;63.02
72210;BME280;60113;48.762;12.302;2023-07-31T07:59:50;97162.19;;;18.96;62.44
72210;BME280;60113;48.762;12.302;2023-07-31T08:02:22;97168.28;;;19.05;63.46
72210;BME280;60113;48.762;12.302;2023-07-31T08:04:47;97155.09;;;19.20;63.36
72210;BME280;60113;48.762;12.302;2023-07-31T08:07:22;97165.13;;;19.41;63.18
72210;BME280;60113;48.762;12.302;2023-07-31T08:09:50;97173.41;;;19.55;63.40
72210;BME280;60113;48.762;12.302;2023-07-31T08:12:16;97168.47;;;19.67;62.90
72210;BME280;60113;48.762;12.302;2023-07-31T08:14:50;97176.78;;;19.95;63.55
72210;BME280;60113;48.762;12.302;2023-07-31T08:17:22;97167.16;;;20.48;63.99
72210;BME280;60113;48.762;12.302;2023-07-31T08:19:48;97171.16;;;20.97;63.80
72210;BME280;60113;48.762;12.302;2023-07-31T08:22:13;97165.00;;;21.34;64.50
72210;BME280;60113;48.762;12.302;2023-07-31T08:24:39;97169.59;;;21.40;61.68
72210;BME280;60113;48.762;12.302;2023-07-31T08:27:07;97171.19;;;21.34;62.98
72210;BME280;60113;48.762;12.302;2023-07-31T08:29:32;97175.53;;;21.20;62.42
72210;BME280;60113;48.762;12.302;2023-07-31T08:31:58;97183.28;;;21.15;62.98
72210;BME280;60113;48.762;12.302;2023-07-31T08:34:24;97175.38;;;21.07;60.98
72210;BME280;60113;48.762;12.302;2023-07-31T08:36:50;97179.53;;;20.94;61.77
72210;BME280;60113;48.762;12.302;2023-07-31T08:39:18;97170.50;;;20.80;62.23
72210;BME280;60113;48.762;12.302;2023-07-31T08:41:44;97175.34;;;20.77;59.63
72210;BME280;60113;48.762;12.302;2023-07-31T08:44:10;97179.13;;;20.82;62.66
72210;BME280;60113;48.762;12.302;2023-07-31T08:46:41;97165.22;;;20.87;59.87
72210;BME280;60113;48.762;12.302;2023-07-31T08:49:13;97172.63;;;20.85;60.17
72210;BME280;60113;48.762;12.302;2023-07-31T08:51:39;97170.22;;;20.75;58.32
72210;BME280;60113;48.762;12.302;2023-07-31T08:54:16;97169.84;;;20.78;61.17
72210;BME280;60113;48.762;12.302;2023-07-31T08:56:42;97165.88;;;20.89;62.36
72210;BME280;60113;48.762;12.302;2023-07-31T08:59:17;97166.44;;;20.99;60.87
72210;BME280;60113;48.762;12.302;2023-07-31T09:01:50;97167.75;;;21.04;59.62
72210;BME280;60113;48.762;12.302;2023-07-31T09:04:19;97162.59;;;21.02;58.35
72210;BME280;60113;48.762;12.302;2023-07-31T09:06:46;97149.31;;;21.09;59.94
72210;BME280;60113;48.762;12.302;2023-07-31T09:09:16;97159.44;;;21.14;57.55
72210;BME280;60113;48.762;12.302;2023-07-31T09:11:44;97152.53;;;21.19;61.73
72210;BME280;60113;48.762;12.302;2023-07-31T09:14:13;97158.25;;;21.16;60.39
72210;BME280;60113;48.762;12.302;2023-07-31T09:16:56;97163.03;;;21.06;56.39
72210;BME280;60113;48.762;12.302;2023-07-31T09:19:33;97148.41;;;21.02;58.15
72210;BME280;60113;48.762;12.302;2023-07-31T09:22:08;97141.84;;;21.04;61.41
72210;BME280;60113;48.762;12.302;2023-07-31T09:24:39;97141.94;;;21.11;61.04
72210;BME280;60113;48.762;12.302;2023-07-31T09:27:16;97133.94;;;21.11;60.00
72210;BME280;60113;48.762;12.302;2023-07-31T09:29:45;97132.81;;;21.20;61.08
72210;BME280;60113;48.762;12.302;2023-07-31T09:32:32;97132.94;;;21.34;60.07
72210;BME280;60113;48.762;12.302;2023-07-31T09:35:00;97129.25;;;21.35;58.50
72210;BME280;60113;48.762;12.302;2023-07-31T09:37:29;97133.44;;;21.44;60.21
72210;BME280;60113;48.762;12.302;2023-07-31T09:40:01;97132.31;;;21.54;60.90
72210;BME280;60113;48.762;12.302;2023-07-31T09:42:29;97116.34;;;21.60;60.59
72210;BME280;60113;48.762;12.302;2023-07-31T09:45:07;97119.97;;;21.53;55.76
72210;BME280;60113;48.762;12.302;2023-07-31T09:47:34;97111.78;;;21.54;60.56
72210;BME280;60113;48.762;12.302;2023-07-31T09:50:00;97104.69;;;21.68;60.85
72210;BME280;60113;48.762;12.302;2023-07-31T09:52:43;97106.63;;;21.96;61.28
72210;BME280;60113;48.762;12.302;2023-07-31T09:55:13;97095.03;;;22.18;59.33
72210;BME280;60113;48.762;12.302;2023-07-31T09:57:49;97088.84;;;22.17;58.50
72210;BME280;60113;48.762;12.302;2023-07-31T10:00:18;97091.13;;;22.20;56.52
72210;BME280;60113;48.762;12.302;2023-07-31T10:02:47;97078.97;;;22.18;60.75
72210;BME280;60113;48.762;12.302;2023-07-31T10:05:15;97074.94;;;22.29;59.65
72210;BME280;60113;48.762;12.302;2023-07-31T10:07:57;97079.25;;;22.30;57.45
72210;BME280;60113;48.762;12.302;2023-07-31T10:10:22;97071.03;;;22.31;58.48
72210;BME280;60113;48.762;12.302;2023-07-31T10:12:52;97066.84;;;22.22;56.19
72210;BME280;60113;48.762;12.302;2023-07-31T10:15:25;97072.53;;;22.05;53.89
72210;BME280;60113;48.762;12.302;2023-07-31T10:17:54;97049.63;;;22.31;57.42
72210;BME280;60113;48.762;12.302;2023-07-31T10:20:20;97059.28;;;22.26;58.79
72210;BME280;60113;48.762;12.302;2023-07-31T10:22:54;97047.31;;;22.21;55.89
72210;BME280;60113;48.762;12.302;2023-07-31T10:25:21;97056.72;;;22.10;54.70
72210;BME280;60113;48.762;12.302;2023-07-31T10:27:47;97048.50;;;22.12;57.02
72210;BME280;60113;48.762;12.302;2023-07-31T10:30:26;97048.69;;;22.46;54.26
72210;BME280;60113;48.762;12.302;2023-07-31T10:32:59;97050.72;;;22.86;56.08
72210;BME280;60113;48.762;12.302;2023-07-31T10:35:33;97055.97;;;23.15;58.16
72210;BME280;60113;48.762;12.302;2023-07-31T10:38:11;97048.00;;;23.55;50.75
72210;BME280;60113;48.762;12.302;2023-07-31T10:40:40;97050.69;;;23.89;56.34
72210;BME280;60113;48.762;12.302;2023-07-31T10:43:27;97049.25;;;24.00;48.50
72210;BME280;60113;48.762;12.302;2023-07-31T10:45:53;97048.19;;;24.21;53.25
72210;BME280;60113;48.762;12.302;2023-07-31T10:48:18;97058.69;;;24.09;52.98
72210;BME280;60113;48.762;12.302;2023-07-31T10:50:56;97055.41;;;23.80;50.66
72210;BME280;60113;48.762;12.302;2023-07-31T10:53:32;97034.59;;;23.62;49.30
72210;BME280;60113;48.762;12.302;2023-07-31T10:56:05;97034.81;;;23.81;56.72
72210;BME280;60113;48.762;12.302;2023-07-31T10:58:44;97028.41;;;23.89;55.66
72210;BME280;60113;48.762;12.302;2023-07-31T11:01:56;97034.75;;;24.08;47.50
72210;BME280;60113;48.762;12.302;2023-07-31T11:04:26;97039.84;;;24.50;51.88
72210;BME280;60113;48.762;12.302;2023-07-31T11:06:59;97020.97;;;24.70;48.72
72210;BME280;60113;48.762;12.302;2023-07-31T11:09:32;97010.84;;;24.72;52.91
72210;BME280;60113;48.762;12.302;2023-07-31T11:12:01;97004.28;;;24.62;47.23
72210;BME280;60113;48.762;12.302;2023-07-31T11:14:38;97004.69;;;24.65;54.77
72210;BME280;60113;48.762;12.302;2023-07-31T11:17:07;96986.19;;;24.43;49.45
72210;BME280;60113;48.762;12.302;2023-07-31T11:19:51;96993.31;;;24.63;48.86
72210;BME280;60113;48.762;12.302;2023-07-31T11:22:17;97001.78;;;24.67;50.08
72210;BME280;60113;48.762;12.302;2023-07-31T11:24:43;96992.69;;;24.68;48.73
72210;BME280;60113;48.762;12.302;2023-07-31T11:27:09;96993.41;;;24.43;47.35
72210;BME280;60113;48.762;12.302;2023-07-31T11:29:53;96992.91;;;24.59;53.96
72210;BME280;60113;48.762;12.302;2023-07-31T11:32:18;96991.00;;;24.73;49.20
72210;BME280;60113;48.762;12.302;2023-07-31T11:34:53;96989.13;;;24.74;50.33
72210;BME280;60113;48.762;12.302;2023-07-31T11:37:23;96983.28;;;24.45;50.44
72210;BME280;60113;48.762;12.302;2023-07-31T11:40:01;96980.56;;;24.52;46.39
72210;BME280;60113;48.762;12.302;2023-07-31T11:42:29;96982.66;;;24.89;52.24
72210;BME280;60113;48.762;12.302;2023-07-31T11:44:54;96971.56;;;25.10;49.96
72210;BME280;60113;48.762;12.302;2023-07-31T11:47:22;96970.69;;;24.91;49.98
72210;BME280;60113;48.762;12.302;2023-07-31T11:49:50;96963.03;;;24.49;50.48
72210;BME280;60113;48.762;12.302;2023-07-31T11:52:17;96967.13;;;24.52;51.89
72210;BME280;60113;48.762;12.302;2023-07-31T11:54:46;96963.09;;;24.75;52.31
72210;BME280;60113;48.762;12.302;2023-07-31T11:57:23;96959.47;;;24.62;49.10
72210;BME280;60113;48.762;12.302;2023-07-31T11:59:58;96953.56;;;24.40;51.76
72210;BME280;60113;48.762;12.302;2023-07-31T12:02:39;96947.56;;;24.44;47.79
72210;BME280;60113;48.762;12.302;2023-07-31T12:05:12;96954.72;;;24.57;49.09
72210;BME280;60113;48.762;12.302;2023-07-31T12:07:53;96944.34;;;24.68;44.65
72210;BME280;60113;48.762;12.302;2023-07-31T12:10:25;96946.31;;;24.79;45.14
72210;BME280;60113;48.762;12.302;2023-07-31T12:13:02;96942.13;;;24.97;45.79
72210;BME280;60113;48.762;12.302;2023-07-31T12:15:37;96944.16;;;25.02;47.10
72210;BME280;60113;48.762;12.302;2023-07-31T12:18:13;96932.28;;;25.16;48.69
72210;BME280;60113;48.762;12.302;2023-07-31T12:21:04;96929.16;;;25.38;49.56
72210;BME280;60113;48.762;12.302;2023-07-31T12:23:37;96922.41;;;25.54;52.24
72210;BME280;60113;48.762;12.302;2023-07-31T12:26:12;96912.63;;;25.60;48.61
72210;BME280;60113;48.762;12.302;2023-07-31T12:28:49;96912.31;;;25.75;51.87
72210;BME280;60113;48.762;12.302;2023-07-31T12:31:20;96916.13;;;25.67;51.04
72210;BME280;60113;48.762;12.302;2023-07-31T12:33:47;96901.28;;;25.58;48.75
72210;BME280;60113;48.762;12.302;2023-07-31T12:36:17;96900.94;;;25.29;48.60
72210;BME280;60113;48.762;12.302;2023-07-31T12:38:43;96913.34;;;25.30;50.33
72210;BME280;60113;48.762;12.302;2023-07-31T12:41:08;96896.38;;;25.29;45.96
72210;BME280;60113;48.762;12.302;2023-07-31T12:43:44;96910.78;;;25.16;48.86
72210;BME280;60113;48.762;12.302;2023-07-31T12:46:09;96906.50;;;25.08;51.15
72210;BME280;60113;48.762;12.302;2023-07-31T12:48:39;96902.06;;;24.89;50.17
72210;BME280;60113;48.762;12.302;2023-07-31T12:51:16;96895.78;;;25.02;48.56
72210;BME280;60113;48.762;12.302;2023-07-31T12:53:41;96893.63;;;25.36;51.02
72210;BME280;60113;48.762;12.302;2023-07-31T12:56:13;96897.69;;;25.45;47.27
72210;BME280;60113;48.762;12.302;2023-07-31T12:58:53;96892.44;;;25.32;51.42
72210;BME280;60113;48.762;12.302;2023-07-31T13:01:27;96893.81;;;25.16;50.76
72210;BME280;60113;48.762;12.302;2023-07-31T13:04:11;96875.34;;;25.01;49.32
72210;BME280;60113;48.762;12.302;2023-07-31T13:06:36;96879.97;;;25.12;48.57
72210;BME280;60113;48.762;12.302;2023-07-31T13:09:17;96881.91;;;25.30;51.53
72210;BME280;60113;48.762;12.302;2023-07-31T13:11:51;96883.94;;;25.54;50.40
72210;BME280;60113;48.762;12.302;2023-07-31T13:14:19;96873.31;;;25.84;44.94
72210;BME280;60113;48.762;12.302;2023-07-31T13:16:51;96867.53;;;25.81;49.74
72210;BME280;60113;48.762;12.302;2023-07-31T13:19:19;96871.81;;;25.70;51.06
72210;BME280;60113;48.762;12.302;2023-07-31T13:21:44;96870.88;;;25.57;49.78
72210;BME280;60113;48.762;12.302;2023-07-31T13:24:12;96865.78;;;25.49;51.29